Olesnica, Poland
Current Conditions -  °F | °C
As of 11:00 AM on Thursday 23 Oct 2014 (Local Time) from EPWR Reporting Station
Broken Clouds Broken Clouds  
Wind Chill: 41°   Ceiling: 600
Heat Index: 46°   Visibility: 4mi
Dew Point: 43°   Wind: 12mph
Humidity: 87%   Direction: 20°NNE
Pressure: 30.06"   Gusts: NA
Location:  51.21°N, 17.38°E
Report Text: EPWR 230900Z 02010KT 7000 BKN006 08/06 Q1018
Loading
Personal Weather Stations






























Interactive Weather Map
Tropical Storm Tracking
New forecast layout! Learn more

10-Day Weather Forecast

Advertisements
Track Severe Weather on mobile